Time;durP1;ratioP1;P1;durP2;ratioP2;P2;SDS_P1;SDS_P2;PMS_P1;PMS_P2;Temp;Humidity;BMP_temperature;BMP_pressure;BME280_temperature;BME280_humidity;BME280_pressure;Samples;Min_cycle;Max_cycle;Signal;HPM_P1;HPM_P2
2022/01/19 00:01:55;;;;;;;;;;;19.10;28.20;;;;;;475707;248;1159;-74
2022/01/19 00:03:56;;;;;;;;;;;19.10;28.20;;;;;;475748;249;1294;-73
2022/01/19 00:05:58;;;;;;;;;;;19.10;28.20;;;;;;475772;249;1495;-73
2022/01/19 00:07:59;;;;;;;;;;;19.10;28.20;;;;;;475677;249;1095;-73
2022/01/19 00:10:04;;;;;;;;;;;19.10;28.20;;;;;;475781;249;2195;-73
2022/01/19 00:12:02;;;;;;;;;;;19.10;28.20;;;;;;475505;250;1377;-73
2022/01/19 00:14:03;;;;;;;;;;;19.10;28.20;;;;;;475778;249;1059;-74
2022/01/19 00:16:04;;;;;;;;;;;19.00;28.20;;;;;;475730;249;1037;-74
2022/01/19 00:18:05;;;;;;;;;;;19.10;28.30;;;;;;475709;249;1317;-74
2022/01/19 00:20:07;;;;;;;;;;;19.10;28.20;;;;;;475734;249;1187;-73
2022/01/19 00:22:09;;;;;;;;;;;19.00;28.20;;;;;;475540;249;1222;-73
2022/01/19 00:24:09;;;;;;;;;;;19.10;28.20;;;;;;475766;250;1334;-73
2022/01/19 00:26:11;;;;;;;;;;;19.00;28.20;;;;;;475635;249;1215;-73
2022/01/19 00:28:12;;;;;;;;;;;19.00;28.20;;;;;;475666;249;1260;-73
2022/01/19 00:30:13;;;;;;;;;;;19.10;28.10;;;;;;475684;249;2200;-73
2022/01/19 00:32:15;;;;;;;;;;;19.10;28.10;;;;;;475625;249;1196;-73
2022/01/19 00:34:16;;;;;;;;;;;19.10;28.20;;;;;;475733;249;1060;-73
2022/01/19 00:36:17;;;;;;;;;;;19.10;28.20;;;;;;475679;249;1300;-74
2022/01/19 00:38:19;;;;;;;;;;;19.10;28.10;;;;;;475666;249;1115;-74
2022/01/19 00:40:20;;;;;;;;;;;19.10;28.10;;;;;;475680;249;1127;-73
2022/01/19 00:42:21;;;;;;;;;;;19.10;28.10;;;;;;475617;249;1225;-73
2022/01/19 00:44:23;;;;;;;;;;;19.10;28.10;;;;;;475750;249;1038;-74
2022/01/19 00:46:24;;;;;;;;;;;19.10;28.20;;;;;;475674;249;1364;-74
2022/01/19 00:48:25;;;;;;;;;;;19.00;28.20;;;;;;475698;249;1123;-74
2022/01/19 00:50:27;;;;;;;;;;;19.00;28.20;;;;;;475656;249;2184;-74
2022/01/19 00:52:28;;;;;;;;;;;19.00;28.20;;;;;;475639;249;1204;-73
2022/01/19 00:54:29;;;;;;;;;;;19.00;28.20;;;;;;475722;249;1224;-73
2022/01/19 00:56:31;;;;;;;;;;;19.00;28.20;;;;;;475669;247;1312;-74
2022/01/19 00:58:32;;;;;;;;;;;19.00;28.20;;;;;;475706;249;988;-74
2022/01/19 01:00:33;;;;;;;;;;;19.00;28.20;;;;;;475660;249;1209;-73
2022/01/19 01:02:35;;;;;;;;;;;19.10;28.10;;;;;;475693;249;1224;-74
2022/01/19 01:04:36;;;;;;;;;;;19.10;28.00;;;;;;475741;249;1050;-73
2022/01/19 01:06:37;;;;;;;;;;;19.10;28.10;;;;;;475683;249;1293;-73
2022/01/19 01:08:39;;;;;;;;;;;19.10;28.10;;;;;;475734;249;1080;-73
2022/01/19 01:10:42;;;;;;;;;;;19.10;28.10;;;;;;475708;249;2161;-73
2022/01/19 01:12:45;;;;;;;;;;;19.00;28.10;;;;;;475669;250;1418;-73
2022/01/19 01:17:13;;;;;;;;;;;19.00;28.20;;;;;;475589;250;1041;-74
2022/01/19 01:19:13;;;;;;;;;;;19.00;28.10;;;;;;475740;250;1450;-73
2022/01/19 01:21:14;;;;;;;;;;;19.00;28.20;;;;;;475792;249;1085;-73
2022/01/19 01:23:15;;;;;;;;;;;19.10;28.10;;;;;;475682;249;1041;-74
2022/01/19 01:25:17;;;;;;;;;;;19.10;28.10;;;;;;475751;249;1142;-74
2022/01/19 01:27:18;;;;;;;;;;;19.00;28.10;;;;;;475693;249;1128;-74
2022/01/19 01:29:19;;;;;;;;;;;19.00;28.10;;;;;;475720;249;1324;-73
2022/01/19 01:31:21;;;;;;;;;;;19.00;28.10;;;;;;475705;249;2200;-74
2022/01/19 01:33:22;;;;;;;;;;;19.10;28.20;;;;;;475627;249;1043;-74
2022/01/19 01:35:23;;;;;;;;;;;19.00;28.10;;;;;;475652;249;980;-73
2022/01/19 01:37:24;;;;;;;;;;;19.00;28.10;;;;;;475541;249;1125;-73
2022/01/19 01:39:26;;;;;;;;;;;19.00;28.20;;;;;;475745;249;1051;-74
2022/01/19 01:41:27;;;;;;;;;;;19.00;28.10;;;;;;475591;249;1161;-74
2022/01/19 01:43:28;;;;;;;;;;;19.10;28.10;;;;;;475658;249;1215;-73
2022/01/19 01:45:32;;;;;;;;;;;19.10;28.10;;;;;;475631;249;1285;-73
2022/01/19 01:47:33;;;;;;;;;;;19.10;28.00;;;;;;475412;250;1377;-74
2022/01/19 01:49:45;;;;;;;;;;;19.20;28.10;;;;;;475687;250;1440;-73
2022/01/19 01:54:01;;;;;;;;;;;19.00;28.10;;;;;;475730;250;1146;-74
2022/01/19 01:56:02;;;;;;;;;;;19.00;28.10;;;;;;475586;249;1251;-74
2022/01/19 01:58:03;;;;;;;;;;;19.00;28.10;;;;;;475679;249;1107;-74
2022/01/19 02:00:05;;;;;;;;;;;19.10;28.10;;;;;;475738;249;1038;-74
2022/01/19 02:02:06;;;;;;;;;;;19.10;28.10;;;;;;475661;249;1096;-73
2022/01/19 02:04:07;;;;;;;;;;;19.10;28.00;;;;;;475713;249;1083;-74
2022/01/19 02:06:28;;;;;;;;;;;19.00;28.00;;;;;;475708;249;1154;-74
2022/01/19 02:08:22;;;;;;;;;;;19.00;28.00;;;;;;475093;250;1433;-74
2022/01/19 02:10:33;;;;;;;;;;;19.10;28.10;;;;;;475567;251;2188;-74
2022/01/19 02:22:06;;;;;;;;;;;19.10;28.00;;;;;;456078;259;1241;-74
2022/01/19 02:24:10;;;;;;;;;;;19.10;27.90;;;;;;456211;261;1110;-74
2022/01/19 02:26:14;;;;;;;;;;;19.00;27.90;;;;;;456088;261;1485;-74
2022/01/19 02:31:03;;;;;;;;;;;19.10;28.00;;;;;;475652;251;2121;-73
2022/01/19 02:41:58;;;;;;;;;;;19.00;28.00;;;;;;475671;250;1208;-74
2022/01/19 02:43:58;;;;;;;;;;;19.00;27.90;;;;;;475670;250;1432;-74
2022/01/19 02:50:37;;;;;;;;;;;19.10;27.90;;;;;;475732;251;2169;-74
2022/01/19 02:52:39;;;;;;;;;;;19.00;27.90;;;;;;475686;249;1246;-74
2022/01/19 02:54:40;;;;;;;;;;;19.10;27.90;;;;;;475750;249;942;-74
2022/01/19 02:56:44;;;;;;;;;;;19.00;27.90;;;;;;475633;249;1206;-74
2022/01/19 02:58:43;;;;;;;;;;;19.00;27.90;;;;;;475654;250;1423;-74
2022/01/19 03:10:01;;;;;;;;;;;19.40;27.60;;;;;;475784;250;947;-74
2022/01/19 03:12:02;;;;;;;;;;;19.50;27.50;;;;;;475656;249;2204;-74
2022/01/19 03:14:07;;;;;;;;;;;19.50;27.40;;;;;;475716;249;990;-74
2022/01/19 03:16:05;;;;;;;;;;;19.50;27.40;;;;;;475667;250;1491;-73
2022/01/19 03:18:06;;;;;;;;;;;19.60;27.40;;;;;;475837;249;1113;-74
2022/01/19 03:20:08;;;;;;;;;;;19.70;27.20;;;;;;475787;249;977;-74
2022/01/19 03:22:09;;;;;;;;;;;19.90;27.20;;;;;;475688;249;1057;-74
2022/01/19 03:24:12;;;;;;;;;;;19.90;27.00;;;;;;475711;249;992;-74
2022/01/19 03:26:12;;;;;;;;;;;19.80;27.10;;;;;;475647;249;1546;-74
2022/01/19 03:28:13;;;;;;;;;;;19.80;27.10;;;;;;475812;249;1119;-74
2022/01/19 03:30:15;;;;;;;;;;;19.80;27.20;;;;;;475743;249;986;-74
2022/01/19 03:32:16;;;;;;;;;;;19.80;27.10;;;;;;475678;249;2196;-74
2022/01/19 03:34:18;;;;;;;;;;;20.10;27.00;;;;;;475756;249;972;-74
2022/01/19 03:36:19;;;;;;;;;;;20.00;26.90;;;;;;475698;249;1139;-74
2022/01/19 03:38:20;;;;;;;;;;;20.30;26.90;;;;;;475670;249;1162;-74
2022/01/19 03:40:22;;;;;;;;;;;20.30;26.90;;;;;;475758;249;1072;-73
2022/01/19 03:42:23;;;;;;;;;;;20.30;26.70;;;;;;475741;249;1196;-74
2022/01/19 03:44:25;;;;;;;;;;;20.30;26.70;;;;;;475771;249;1049;-74
2022/01/19 03:46:33;;;;;;;;;;;20.20;26.60;;;;;;475640;249;1211;-74
2022/01/19 03:48:37;;;;;;;;;;;20.30;26.70;;;;;;475491;250;1342;-74
2022/01/19 03:50:35;;;;;;;;;;;20.30;26.60;;;;;;475573;250;1357;-74
2022/01/19 03:52:36;;;;;;;;;;;20.30;26.60;;;;;;475661;249;2136;-74
2022/01/19 03:54:38;;;;;;;;;;;20.20;26.70;;;;;;475734;249;1058;-74
2022/01/19 03:56:39;;;;;;;;;;;20.30;26.60;;;;;;475745;249;1232;-74
2022/01/19 03:58:40;;;;;;;;;;;20.30;26.70;;;;;;475764;249;1200;-74
2022/01/19 04:00:44;;;;;;;;;;;20.30;26.70;;;;;;475727;249;1072;-74
2022/01/19 04:02:43;;;;;;;;;;;20.30;26.60;;;;;;475688;249;1487;-74
2022/01/19 04:04:49;;;;;;;;;;;20.40;26.60;;;;;;475737;249;1093;-74
2022/01/19 04:07:00;;;;;;;;;;;20.50;26.60;;;;;;475437;250;1433;-73
2022/01/19 04:08:58;;;;;;;;;;;20.40;26.50;;;;;;475506;250;1430;-73
2022/01/19 04:10:59;;;;;;;;;;;20.40;26.50;;;;;;475668;249;2192;-74
2022/01/19 04:13:10;;;;;;;;;;;20.30;26.60;;;;;;475714;249;1192;-74
2022/01/19 04:15:09;;;;;;;;;;;20.30;26.50;;;;;;475671;249;1382;-74
2022/01/19 04:17:10;;;;;;;;;;;20.30;26.70;;;;;;475603;249;1213;-74
2022/01/19 04:19:22;;;;;;;;;;;20.30;26.70;;;;;;475742;249;1058;-74
2022/01/19 04:21:14;;;;;;;;;;;20.40;26.50;;;;;;475092;250;1441;-74
2022/01/19 04:23:16;;;;;;;;;;;20.40;26.50;;;;;;475632;249;1131;-73
2022/01/19 04:25:17;;;;;;;;;;;20.30;26.50;;;;;;475700;249;1103;-74
2022/01/19 04:27:34;;;;;;;;;;;20.30;26.50;;;;;;475662;249;1157;-74
2022/01/19 04:29:35;;;;;;;;;;;20.40;26.50;;;;;;475677;249;1100;-74
2022/01/19 04:31:37;;;;;;;;;;;20.30;26.50;;;;;;475609;248;2137;-74
2022/01/19 04:33:42;;;;;;;;;;;20.30;26.50;;;;;;475743;249;988;-74
2022/01/19 04:35:49;;;;;;;;;;;20.20;26.60;;;;;;475506;250;1435;-74
2022/01/19 04:38:44;;;;;;;;;;;19.90;26.70;;;;;;475499;250;1375;-74
2022/01/19 04:45:10;;;;;;;;;;;19.70;27.00;;;;;;475675;250;1317;-74
2022/01/19 05:03:33;;;;;;;;;;;19.50;27.30;;;;;;475731;250;1195;-74
2022/01/19 05:05:31;;;;;;;;;;;19.50;27.30;;;;;;475311;250;1470;-74
2022/01/19 05:07:35;;;;;;;;;;;19.40;27.30;;;;;;475386;249;1551;-74
2022/01/19 05:09:54;;;;;;;;;;;19.40;27.40;;;;;;475277;250;1336;-74
2022/01/19 05:13:51;;;;;;;;;;;19.40;27.40;;;;;;475598;250;1142;-74
2022/01/19 05:15:53;;;;;;;;;;;19.40;27.40;;;;;;475560;249;1375;-74
2022/01/19 05:17:54;;;;;;;;;;;19.40;27.40;;;;;;475561;249;1357;-74
2022/01/19 05:19:55;;;;;;;;;;;19.50;27.40;;;;;;475591;249;1097;-74
2022/01/19 05:21:56;;;;;;;;;;;19.40;27.40;;;;;;475464;249;1220;-74
2022/01/19 05:24:03;;;;;;;;;;;19.40;27.50;;;;;;475616;249;962;-74
2022/01/19 05:25:59;;;;;;;;;;;19.40;27.40;;;;;;475307;250;1370;-74
2022/01/19 05:28:00;;;;;;;;;;;19.40;27.50;;;;;;475573;249;1099;-74
2022/01/19 05:30:02;;;;;;;;;;;19.40;27.50;;;;;;475679;249;1211;-74
2022/01/19 05:32:03;;;;;;;;;;;19.40;27.50;;;;;;475595;249;2188;-74
2022/01/19 05:34:04;;;;;;;;;;;19.40;27.50;;;;;;475663;249;1038;-74
2022/01/19 05:36:06;;;;;;;;;;;19.40;27.40;;;;;;475578;249;1172;-74
2022/01/19 05:38:07;;;;;;;;;;;19.30;27.50;;;;;;475608;249;1054;-74
2022/01/19 05:40:08;;;;;;;;;;;19.30;27.50;;;;;;475572;249;1101;-74
2022/01/19 05:42:14;;;;;;;;;;;19.30;27.50;;;;;;475476;248;1415;-74
2022/01/19 05:44:12;;;;;;;;;;;19.40;27.50;;;;;;475359;250;1419;-74
2022/01/19 05:46:13;;;;;;;;;;;19.30;27.50;;;;;;475482;249;1328;-74
2022/01/19 05:48:14;;;;;;;;;;;19.30;27.50;;;;;;475646;249;1112;-74
2022/01/19 05:50:16;;;;;;;;;;;19.30;27.50;;;;;;475509;249;1126;-74
2022/01/19 05:52:17;;;;;;;;;;;19.40;27.50;;;;;;475418;248;2145;-74
2022/01/19 05:54:20;;;;;;;;;;;19.30;27.50;;;;;;475596;249;954;-74
2022/01/19 05:56:20;;;;;;;;;;;19.40;27.50;;;;;;475553;250;1399;-74
2022/01/19 05:58:21;;;;;;;;;;;19.30;27.40;;;;;;475613;249;1060;-74
2022/01/19 06:00:22;;;;;;;;;;;19.40;27.40;;;;;;475516;249;1151;-74
2022/01/19 06:02:24;;;;;;;;;;;19.40;27.30;;;;;;475479;249;1170;-74
2022/01/19 06:04:25;;;;;;;;;;;19.30;27.40;;;;;;475514;249;993;-74
2022/01/19 06:06:26;;;;;;;;;;;19.30;27.50;;;;;;475546;249;1203;-74
2022/01/19 06:08:42;;;;;;;;;;;19.30;27.50;;;;;;475474;249;1003;-74
2022/01/19 06:10:44;;;;;;;;;;;19.30;27.40;;;;;;475375;249;1332;-74
2022/01/19 06:12:45;;;;;;;;;;;19.30;27.50;;;;;;475606;249;2137;-74
2022/01/19 06:14:46;;;;;;;;;;;19.30;27.50;;;;;;475453;249;1184;-74
2022/01/19 06:16:48;;;;;;;;;;;19.30;27.50;;;;;;475406;249;1123;-74
2022/01/19 06:18:49;;;;;;;;;;;19.20;27.40;;;;;;475460;249;1061;-74
2022/01/19 06:20:50;;;;;;;;;;;19.10;27.50;;;;;;475546;249;1217;-74
2022/01/19 06:22:52;;;;;;;;;;;19.20;27.50;;;;;;475480;249;960;-74
2022/01/19 06:24:53;;;;;;;;;;;19.20;27.50;;;;;;475483;249;1051;-74
2022/01/19 06:26:54;;;;;;;;;;;19.20;27.50;;;;;;475378;249;1344;-74
2022/01/19 06:28:55;;;;;;;;;;;19.20;27.60;;;;;;475456;249;1182;-74
2022/01/19 06:30:57;;;;;;;;;;;19.20;27.60;;;;;;475407;249;1184;-74
2022/01/19 06:32:58;;;;;;;;;;;19.20;27.60;;;;;;475422;249;2189;-74
2022/01/19 06:34:59;;;;;;;;;;;19.20;27.60;;;;;;475521;249;957;-74
2022/01/19 06:37:01;;;;;;;;;;;19.20;27.60;;;;;;475422;249;1163;-74
2022/01/19 06:39:02;;;;;;;;;;;19.20;27.60;;;;;;475524;249;1013;-74
2022/01/19 06:41:03;;;;;;;;;;;19.30;27.60;;;;;;475403;249;1222;-74
2022/01/19 06:43:05;;;;;;;;;;;19.30;27.60;;;;;;475378;249;1115;-74
2022/01/19 06:45:06;;;;;;;;;;;19.30;27.60;;;;;;475381;249;1208;-74
2022/01/19 06:47:07;;;;;;;;;;;19.30;27.60;;;;;;475439;249;1349;-74
2022/01/19 06:49:09;;;;;;;;;;;19.20;27.60;;;;;;475426;249;1096;-74
2022/01/19 06:51:10;;;;;;;;;;;19.20;27.60;;;;;;475323;249;1230;-74
2022/01/19 06:53:11;;;;;;;;;;;19.20;27.70;;;;;;475419;249;2196;-74
2022/01/19 06:55:12;;;;;;;;;;;19.20;27.70;;;;;;475364;249;1066;-74
2022/01/19 06:57:14;;;;;;;;;;;19.10;27.70;;;;;;475323;249;1562;-74
2022/01/19 06:59:15;;;;;;;;;;;19.20;27.80;;;;;;475372;249;1148;-74
2022/01/19 07:01:16;;;;;;;;;;;19.20;27.70;;;;;;475211;249;1188;-73
2022/01/19 07:03:18;;;;;;;;;;;19.10;27.80;;;;;;475281;249;1155;-73
2022/01/19 07:05:19;;;;;;;;;;;19.20;27.80;;;;;;475225;249;1136;-73
2022/01/19 07:07:20;;;;;;;;;;;19.00;27.80;;;;;;475196;249;1185;-73
2022/01/19 07:09:22;;;;;;;;;;;19.00;27.80;;;;;;475260;249;1429;-73
2022/01/19 07:11:23;;;;;;;;;;;19.10;27.90;;;;;;475164;249;1327;-73
2022/01/19 07:13:24;;;;;;;;;;;19.00;27.90;;;;;;475188;249;2200;-74
2022/01/19 07:15:26;;;;;;;;;;;19.10;27.90;;;;;;475176;249;1315;-74
2022/01/19 07:17:27;;;;;;;;;;;19.10;27.90;;;;;;475261;249;1089;-74
2022/01/19 07:19:28;;;;;;;;;;;19.00;27.90;;;;;;475232;249;1027;-73
2022/01/19 07:21:30;;;;;;;;;;;19.00;28.00;;;;;;475258;249;1155;-73
2022/01/19 07:23:31;;;;;;;;;;;19.00;28.10;;;;;;474981;249;1044;-73
2022/01/19 07:25:32;;;;;;;;;;;19.00;28.00;;;;;;474967;249;1188;-73
2022/01/19 07:27:34;;;;;;;;;;;19.00;28.00;;;;;;475117;249;1109;-73
2022/01/19 07:29:35;;;;;;;;;;;19.10;28.00;;;;;;475181;249;1061;-73
2022/01/19 07:31:36;;;;;;;;;;;19.00;28.00;;;;;;475107;249;1196;-74
2022/01/19 07:33:38;;;;;;;;;;;19.00;28.00;;;;;;475153;249;2188;-73
2022/01/19 07:35:39;;;;;;;;;;;19.00;28.10;;;;;;475154;249;1337;-73
2022/01/19 07:37:40;;;;;;;;;;;19.00;28.20;;;;;;475098;249;1298;-73
2022/01/19 07:39:42;;;;;;;;;;;19.00;28.10;;;;;;475160;247;1074;-73
2022/01/19 07:41:43;;;;;;;;;;;18.90;28.10;;;;;;475150;249;1136;-73
2022/01/19 07:43:44;;;;;;;;;;;18.90;28.20;;;;;;475057;249;1064;-73
2022/01/19 07:45:46;;;;;;;;;;;18.90;28.30;;;;;;475036;249;1299;-73
2022/01/19 07:47:47;;;;;;;;;;;19.00;28.30;;;;;;474707;249;1306;-73
2022/01/19 07:49:48;;;;;;;;;;;19.00;28.30;;;;;;474674;249;1143;-73
2022/01/19 07:51:50;;;;;;;;;;;19.00;28.30;;;;;;474899;249;1199;-73
2022/01/19 07:53:51;;;;;;;;;;;19.00;28.30;;;;;;475033;249;2184;-73
2022/01/19 07:55:53;;;;;;;;;;;18.90;28.30;;;;;;474976;249;1252;-73
2022/01/19 07:57:54;;;;;;;;;;;19.00;28.40;;;;;;474903;249;1298;-73
2022/01/19 07:59:55;;;;;;;;;;;19.00;28.30;;;;;;475026;249;1071;-73
2022/01/19 08:01:57;;;;;;;;;;;19.00;28.30;;;;;;474839;249;1200;-73
2022/01/19 08:03:58;;;;;;;;;;;19.10;28.40;;;;;;474986;249;1244;-74
2022/01/19 08:05:59;;;;;;;;;;;19.10;28.30;;;;;;474851;249;1272;-73
2022/01/19 08:08:02;;;;;;;;;;;19.00;28.30;;;;;;474927;249;1104;-74
2022/01/19 08:10:03;;;;;;;;;;;19.00;28.40;;;;;;475124;249;1444;-74
2022/01/19 08:12:04;;;;;;;;;;;19.00;28.40;;;;;;474703;249;1094;-73
2022/01/19 08:14:05;;;;;;;;;;;19.00;28.40;;;;;;474733;249;2110;-73
2022/01/19 08:16:07;;;;;;;;;;;19.00;28.50;;;;;;474773;249;1228;-73
2022/01/19 08:18:08;;;;;;;;;;;19.00;28.50;;;;;;474912;249;1336;-74
2022/01/19 08:20:09;;;;;;;;;;;19.10;28.40;;;;;;475044;249;1219;-73
2022/01/19 08:22:11;;;;;;;;;;;19.20;28.40;;;;;;474784;249;1270;-73
2022/01/19 08:24:12;;;;;;;;;;;19.20;28.40;;;;;;474480;249;1313;-73
2022/01/19 08:26:15;;;;;;;;;;;19.30;28.40;;;;;;474914;249;1529;-73
2022/01/19 08:28:15;;;;;;;;;;;19.20;28.40;;;;;;474962;250;1304;-73
2022/01/19 08:30:16;;;;;;;;;;;19.30;28.40;;;;;;474991;249;980;-73
2022/01/19 08:32:18;;;;;;;;;;;19.30;28.30;;;;;;474896;249;2200;-73
2022/01/19 08:34:20;;;;;;;;;;;19.40;28.30;;;;;;474988;249;1042;-73
2022/01/19 08:36:21;;;;;;;;;;;19.30;28.30;;;;;;474772;249;1425;-73
2022/01/19 08:38:22;;;;;;;;;;;19.30;28.40;;;;;;474929;249;1076;-73
2022/01/19 08:40:27;;;;;;;;;;;19.30;28.50;;;;;;474888;249;1098;-73
2022/01/19 08:42:26;;;;;;;;;;;19.20;28.50;;;;;;474741;250;1395;-73
2022/01/19 08:44:27;;;;;;;;;;;19.30;28.50;;;;;;474931;249;1104;-73
2022/01/19 08:46:29;;;;;;;;;;;19.30;28.50;;;;;;474782;249;1196;-73
2022/01/19 08:48:30;;;;;;;;;;;19.40;28.40;;;;;;474840;249;1111;-73
2022/01/19 08:50:31;;;;;;;;;;;19.40;28.40;;;;;;474932;249;1117;-73
2022/01/19 08:52:33;;;;;;;;;;;19.30;28.40;;;;;;475012;249;2205;-73
2022/01/19 08:54:34;;;;;;;;;;;19.30;28.50;;;;;;474898;249;1089;-73
2022/01/19 08:56:35;;;;;;;;;;;19.40;28.50;;;;;;474789;249;1602;-74
2022/01/19 08:58:37;;;;;;;;;;;19.30;28.50;;;;;;475533;249;1050;-74
2022/01/19 09:00:38;;;;;;;;;;;19.40;28.50;;;;;;474962;249;1007;-73
2022/01/19 09:02:40;;;;;;;;;;;19.40;28.40;;;;;;474929;249;1296;-73
2022/01/19 09:04:41;;;;;;;;;;;19.40;28.40;;;;;;474869;249;1020;-74
2022/01/19 09:06:43;;;;;;;;;;;19.40;28.50;;;;;;474870;249;1333;-73
2022/01/19 09:08:43;;;;;;;;;;;19.40;28.50;;;;;;474610;249;1255;-73
2022/01/19 09:10:47;;;;;;;;;;;19.40;28.50;;;;;;474275;249;1053;-74
2022/01/19 09:12:46;;;;;;;;;;;19.40;28.50;;;;;;474745;250;2193;-73
2022/01/19 09:14:48;;;;;;;;;;;19.40;28.50;;;;;;474767;249;1180;-74
2022/01/19 09:16:49;;;;;;;;;;;19.40;28.50;;;;;;474870;249;1083;-74
2022/01/19 09:18:50;;;;;;;;;;;19.40;28.50;;;;;;474927;249;1042;-74
2022/01/19 09:20:52;;;;;;;;;;;19.40;28.50;;;;;;474926;249;1215;-73
2022/01/19 09:22:53;;;;;;;;;;;19.30;28.60;;;;;;474811;249;1350;-73
2022/01/19 09:24:54;;;;;;;;;;;19.40;28.60;;;;;;474695;249;1089;-73
2022/01/19 09:26:56;;;;;;;;;;;19.50;28.60;;;;;;474639;249;1136;-73
2022/01/19 09:28:57;;;;;;;;;;;19.50;28.50;;;;;;474706;249;1096;-73
2022/01/19 09:31:01;;;;;;;;;;;19.60;28.40;;;;;;474718;249;1180;-74
2022/01/19 09:33:07;;;;;;;;;;;19.50;28.50;;;;;;474402;250;2189;-74
2022/01/19 09:35:09;;;;;;;;;;;19.60;28.40;;;;;;474796;250;1230;-73
2022/01/19 09:37:08;;;;;;;;;;;19.60;28.50;;;;;;474719;250;1326;-73
2022/01/19 09:39:10;;;;;;;;;;;19.60;28.40;;;;;;474906;249;1185;-73
2022/01/19 09:41:12;;;;;;;;;;;19.60;28.40;;;;;;474920;249;1395;-73
2022/01/19 09:43:12;;;;;;;;;;;19.50;28.40;;;;;;474746;250;1433;-73
2022/01/19 09:45:14;;;;;;;;;;;19.50;28.40;;;;;;474910;249;981;-74
2022/01/19 09:47:15;;;;;;;;;;;19.60;28.50;;;;;;474825;249;1235;-74
2022/01/19 09:49:17;;;;;;;;;;;19.50;28.50;;;;;;474901;249;1156;-73
2022/01/19 09:51:18;;;;;;;;;;;19.50;28.60;;;;;;474707;249;1280;-74
2022/01/19 09:53:19;;;;;;;;;;;19.50;28.60;;;;;;474786;249;2200;-74
2022/01/19 09:55:20;;;;;;;;;;;19.50;28.60;;;;;;474607;249;1288;-74
2022/01/19 09:57:21;;;;;;;;;;;19.50;28.60;;;;;;474588;249;1202;-74
2022/01/19 09:59:23;;;;;;;;;;;19.50;28.60;;;;;;474666;249;1127;-74
2022/01/19 10:01:24;;;;;;;;;;;19.50;28.70;;;;;;474588;249;1220;-73
2022/01/19 10:03:25;;;;;;;;;;;19.50;28.70;;;;;;474741;249;1208;-73
2022/01/19 10:05:27;;;;;;;;;;;19.40;28.80;;;;;;474656;249;1038;-73
2022/01/19 10:07:28;;;;;;;;;;;19.40;28.90;;;;;;474662;249;1280;-73
2022/01/19 10:09:29;;;;;;;;;;;19.30;28.90;;;;;;474781;249;1132;-74
2022/01/19 10:16:58;;;;;;;;;;;19.20;29.00;;;;;;474631;249;1390;-74
2022/01/19 10:18:19;;;;;;;;;;;18.90;29.40;;;;;;474916;250;1143;-74
2022/01/19 10:20:21;;;;;;;;;;;18.90;29.50;;;;;;474880;249;1022;-74
2022/01/19 10:22:23;;;;;;;;;;;18.80;29.60;;;;;;474971;249;1190;-74
2022/01/19 10:24:24;;;;;;;;;;;18.80;29.70;;;;;;475052;250;1253;-73
2022/01/19 10:26:25;;;;;;;;;;;18.80;29.70;;;;;;474799;249;1370;-73
2022/01/19 10:28:27;;;;;;;;;;;18.80;29.70;;;;;;474950;249;1180;-73
2022/01/19 10:30:28;;;;;;;;;;;18.70;29.80;;;;;;474834;249;1087;-73
2022/01/19 10:32:30;;;;;;;;;;;18.80;29.90;;;;;;474807;249;1193;-73
2022/01/19 10:34:31;;;;;;;;;;;18.80;29.90;;;;;;474696;249;2180;-73
2022/01/19 10:36:32;;;;;;;;;;;18.80;29.90;;;;;;474462;249;1371;-74
2022/01/19 10:38:33;;;;;;;;;;;18.70;29.90;;;;;;474634;249;1044;-74
2022/01/19 10:40:35;;;;;;;;;;;18.70;30.00;;;;;;474713;249;939;-73
2022/01/19 10:42:36;;;;;;;;;;;18.70;30.00;;;;;;474748;249;1220;-74
2022/01/19 10:44:38;;;;;;;;;;;18.80;30.00;;;;;;474858;249;1258;-74
2022/01/19 10:46:40;;;;;;;;;;;18.80;30.00;;;;;;474876;249;1213;-74
2022/01/19 10:48:40;;;;;;;;;;;18.80;30.00;;;;;;474865;250;1412;-73
2022/01/19 10:50:44;;;;;;;;;;;18.80;30.00;;;;;;474650;249;1215;-73
2022/01/19 10:52:43;;;;;;;;;;;18.80;30.00;;;;;;474966;250;1385;-73
2022/01/19 10:54:44;;;;;;;;;;;18.80;30.00;;;;;;475415;249;2203;-73
2022/01/19 10:56:48;;;;;;;;;;;18.90;30.00;;;;;;474872;249;1169;-73
2022/01/19 10:58:47;;;;;;;;;;;18.80;30.00;;;;;;474801;249;1387;-74
2022/01/19 11:00:48;;;;;;;;;;;18.80;30.00;;;;;;474810;249;1103;-74
2022/01/19 11:02:49;;;;;;;;;;;18.80;30.00;;;;;;474943;249;1397;-74
2022/01/19 11:04:51;;;;;;;;;;;18.80;30.00;;;;;;474914;249;1112;-73
2022/01/19 11:06:52;;;;;;;;;;;18.80;30.00;;;;;;474842;249;1487;-73
2022/01/19 11:08:53;;;;;;;;;;;18.80;30.10;;;;;;474781;249;1105;-73
2022/01/19 11:10:55;;;;;;;;;;;18.90;30.00;;;;;;474940;249;1229;-74
2022/01/19 11:12:56;;;;;;;;;;;18.90;30.00;;;;;;474786;249;1140;-74
2022/01/19 11:14:57;;;;;;;;;;;18.90;30.00;;;;;;474909;249;2188;-73
2022/01/19 11:16:59;;;;;;;;;;;18.90;30.00;;;;;;474897;249;1147;-74
2022/01/19 11:19:00;;;;;;;;;;;18.80;30.00;;;;;;474965;249;1169;-73
2022/01/19 11:21:01;;;;;;;;;;;18.90;30.00;;;;;;474572;249;1130;-73
2022/01/19 11:23:03;;;;;;;;;;;18.90;30.00;;;;;;474737;249;1072;-73
2022/01/19 11:25:04;;;;;;;;;;;18.90;30.00;;;;;;474813;249;1080;-73
2022/01/19 11:27:05;;;;;;;;;;;18.80;30.10;;;;;;474716;249;1135;-73
2022/01/19 11:29:07;;;;;;;;;;;18.80;30.10;;;;;;474823;249;1066;-74
2022/01/19 11:31:08;;;;;;;;;;;18.90;30.10;;;;;;474829;249;1034;-74
2022/01/19 11:33:09;;;;;;;;;;;18.90;30.10;;;;;;474809;249;1069;-73
2022/01/19 11:35:11;;;;;;;;;;;19.00;30.00;;;;;;474949;249;2180;-74
2022/01/19 11:37:12;;;;;;;;;;;19.00;30.00;;;;;;474924;249;1378;-74
2022/01/19 11:39:13;;;;;;;;;;;19.00;30.00;;;;;;474969;249;1037;-73
2022/01/19 11:41:15;;;;;;;;;;;19.10;30.00;;;;;;474918;249;1073;-73
2022/01/19 11:43:16;;;;;;;;;;;19.00;30.00;;;;;;475002;249;1065;-73
2022/01/19 11:45:17;;;;;;;;;;;19.10;30.00;;;;;;474933;249;1120;-73
2022/01/19 11:47:19;;;;;;;;;;;19.00;30.00;;;;;;474886;249;1007;-73
2022/01/19 11:49:20;;;;;;;;;;;19.00;30.10;;;;;;474982;249;1285;-73
2022/01/19 11:51:21;;;;;;;;;;;19.00;30.00;;;;;;474900;249;1064;-73
2022/01/19 11:53:22;;;;;;;;;;;19.00;30.10;;;;;;474989;249;1044;-73
2022/01/19 11:55:24;;;;;;;;;;;19.00;30.10;;;;;;474871;249;2200;-73
2022/01/19 11:57:25;;;;;;;;;;;19.00;30.00;;;;;;474792;249;1217;-73
2022/01/19 11:59:29;;;;;;;;;;;19.10;30.00;;;;;;474808;249;1246;-73
2022/01/19 12:01:28;;;;;;;;;;;19.10;29.90;;;;;;474690;250;1305;-73
2022/01/19 12:03:29;;;;;;;;;;;19.20;29.90;;;;;;475498;249;835;-73
2022/01/19 12:05:31;;;;;;;;;;;19.20;29.80;;;;;;474914;249;1227;-74
2022/01/19 12:07:32;;;;;;;;;;;19.30;29.70;;;;;;474916;249;1210;-73
2022/01/19 12:09:33;;;;;;;;;;;19.30;29.70;;;;;;474906;249;1068;-73
2022/01/19 12:11:36;;;;;;;;;;;19.30;29.70;;;;;;474953;249;1297;-73
2022/01/19 12:13:58;;;;;;;;;;;19.50;29.60;;;;;;474845;250;2148;-75
2022/01/19 12:15:59;;;;;;;;;;;19.50;29.50;;;;;;474667;250;1411;-73
2022/01/19 12:18:08;;;;;;;;;;;19.40;29.50;;;;;;474815;250;1292;-73
2022/01/19 12:20:01;;;;;;;;;;;19.50;29.50;;;;;;474254;250;1421;-74
2022/01/19 12:22:08;;;;;;;;;;;19.50;29.50;;;;;;474936;250;1317;-74
2022/01/19 12:24:07;;;;;;;;;;;19.60;29.50;;;;;;474911;249;1387;-74
2022/01/19 12:26:09;;;;;;;;;;;19.80;29.30;;;;;;474855;249;1332;-74
2022/01/19 12:28:10;;;;;;;;;;;20.00;29.00;;;;;;474925;249;1298;-74
2022/01/19 12:30:11;;;;;;;;;;;20.00;29.10;;;;;;474801;249;982;-73
2022/01/19 12:32:13;;;;;;;;;;;20.10;29.00;;;;;;474659;249;1204;-73
2022/01/19 12:34:15;;;;;;;;;;;20.50;28.70;;;;;;474843;249;2204;-73
2022/01/19 12:36:15;;;;;;;;;;;20.50;28.60;;;;;;474727;250;1404;-74
2022/01/19 12:38:16;;;;;;;;;;;20.50;28.60;;;;;;474855;249;1165;-74
2022/01/19 12:40:18;;;;;;;;;;;20.60;28.50;;;;;;474788;249;1062;-74
2022/01/19 12:42:23;;;;;;;;;;;21.00;28.20;;;;;;474901;249;1051;-74
2022/01/19 12:44:20;;;;;;;;;;;20.80;28.20;;;;;;474681;250;1313;-74
2022/01/19 12:46:22;;;;;;;;;;;20.90;28.20;;;;;;474870;249;1253;-74
2022/01/19 12:48:23;;;;;;;;;;;21.20;27.90;;;;;;475144;249;787;-74
2022/01/19 12:50:24;;;;;;;;;;;21.20;27.90;;;;;;475126;249;1109;-74
2022/01/19 12:52:26;;;;;;;;;;;21.20;27.90;;;;;;474842;249;1080;-74
2022/01/19 12:54:27;;;;;;;;;;;21.30;27.80;;;;;;474799;249;2181;-74
2022/01/19 12:56:28;;;;;;;;;;;21.60;27.60;;;;;;474826;249;1172;-74
2022/01/19 12:58:30;;;;;;;;;;;21.60;27.60;;;;;;474966;249;1077;-74
2022/01/19 13:00:31;;;;;;;;;;;22.00;27.20;;;;;;474751;249;1077;-74
2022/01/19 13:02:32;;;;;;;;;;;21.80;27.40;;;;;;474759;249;1052;-74
2022/01/19 13:04:34;;;;;;;;;;;21.90;27.30;;;;;;474750;249;1060;-74
2022/01/19 13:06:35;;;;;;;;;;;21.90;27.40;;;;;;474913;249;1191;-74
2022/01/19 13:08:36;;;;;;;;;;;21.90;27.30;;;;;;474999;249;1095;-74